Time;durP1;ratioP1;P1;durP2;ratioP2;P2;SDS_P1;SDS_P2;PMS_P1;PMS_P2;Temp;Humidity;BMP_temperature;BMP_pressure;BME280_temperature;BME280_humidity;BME280_pressure;Samples;Min_cycle;Max_cycle;Signal;HPM_P1;HPM_P2
2022/03/02 00:00:49;;;;;;;36.40;31.90;;;;;;;2.86;92.74;102952.25;5035697;28;20734;-45
2022/03/02 00:03:17;;;;;;;46.17;33.70;;;;;;;2.87;92.90;102943.38;5033920;28;20471;-45
2022/03/02 00:05:45;;;;;;;36.70;30.97;;;;;;;2.74;93.83;102953.84;5034699;28;20523;-45
2022/03/02 00:08:13;;;;;;;41.30;32.13;;;;;;;2.69;95.05;102940.09;5034401;28;20443;-45
2022/03/02 00:10:40;;;;;;;40.07;30.80;;;;;;;2.65;95.55;102950.91;5034409;28;20459;-46
2022/03/02 00:13:09;;;;;;;44.60;32.67;;;;;;;2.61;95.59;102958.13;5034271;28;20458;-48
2022/03/02 00:15:37;;;;;;;35.23;31.00;;;;;;;2.63;95.57;102958.03;5034071;28;20496;-47
2022/03/02 00:18:05;;;;;;;44.27;31.63;;;;;;;2.58;95.09;102955.69;5034544;28;20427;-49
2022/03/02 00:20:33;;;;;;;37.93;30.87;;;;;;;2.62;95.44;102973.00;5034957;28;20535;-46
2022/03/02 00:23:00;;;;;;;37.63;30.23;;;;;;;2.69;95.23;102966.44;5034035;28;20436;-46
2022/03/02 00:25:28;;;;;;;40.67;31.33;;;;;;;2.79;95.17;102966.72;5033970;28;20456;-46
2022/03/02 00:27:55;;;;;;;45.93;32.73;;;;;;;2.83;94.36;102959.50;5034446;28;20897;-47
2022/03/02 00:30:28;;;;;;;37.60;31.40;;;;;;;2.86;93.81;102954.03;5034237;28;20836;-46
2022/03/02 00:32:55;;;;;;;39.60;31.20;;;;;;;2.90;93.24;102955.56;5034289;28;20432;-50
2022/03/02 00:35:23;;;;;;;38.77;31.40;;;;;;;2.94;93.40;102960.53;5033395;28;20575;-46
2022/03/02 00:37:51;;;;;;;40.20;32.23;;;;;;;2.94;93.25;102957.03;5035055;28;20811;-47
2022/03/02 00:40:19;;;;;;;46.73;31.90;;;;;;;2.98;93.06;102956.78;5034818;28;20932;-48
2022/03/02 00:42:46;;;;;;;43.50;31.93;;;;;;;2.99;92.68;102965.50;5034434;28;20436;-48
2022/03/02 00:45:14;;;;;;;41.73;31.60;;;;;;;3.02;92.17;102966.19;5033686;28;20508;-45
2022/03/02 00:47:43;;;;;;;38.60;30.63;;;;;;;3.05;91.85;102965.13;5033159;28;20805;-50
2022/03/02 00:50:13;;;;;;;45.00;34.30;;;;;;;3.05;91.91;102957.22;5034165;28;20439;-48
2022/03/02 00:52:41;;;;;;;43.43;31.70;;;;;;;3.09;91.61;102953.47;5034092;28;20993;-47
2022/03/02 00:55:09;;;;;;;40.27;32.80;;;;;;;3.12;91.40;102956.78;5033199;28;20490;-47
2022/03/02 00:57:36;;;;;;;34.13;29.40;;;;;;;3.12;91.08;102964.69;5033556;28;20950;-45
2022/03/02 01:00:05;;;;;;;38.10;30.50;;;;;;;3.13;90.84;102955.00;5022458;28;20437;-43
2022/03/02 01:02:34;;;;;;;37.17;30.93;;;;;;;3.05;90.77;102955.44;5013956;28;21005;-46
2022/03/02 01:05:04;;;;;;;39.13;30.93;;;;;;;2.99;91.03;102947.91;5013062;28;20468;-47
2022/03/02 01:07:32;;;;;;;37.70;31.27;;;;;;;3.00;91.45;102951.41;5013444;28;20421;-45
2022/03/02 01:09:59;;;;;;;38.87;31.43;;;;;;;3.01;91.29;102961.00;5014055;28;20437;-48
2022/03/02 01:12:27;;;;;;;41.37;32.60;;;;;;;3.03;91.65;102954.69;5013765;28;20527;-47
2022/03/02 01:14:55;;;;;;;39.40;31.37;;;;;;;3.06;91.52;102957.16;5012670;28;20464;-44
2022/03/02 01:17:23;;;;;;;37.03;31.00;;;;;;;3.00;91.55;102960.16;5013351;28;20961;-46
2022/03/02 01:19:51;;;;;;;39.90;31.87;;;;;;;3.02;92.00;102962.69;5013805;28;20433;-45
2022/03/02 01:22:20;;;;;;;37.30;31.70;;;;;;;3.03;92.11;102956.47;5013578;28;20453;-47
2022/03/02 01:24:47;;;;;;;41.63;33.47;;;;;;;3.04;92.07;102952.91;5013019;28;20471;-47
2022/03/02 01:27:15;;;;;;;40.60;31.03;;;;;;;3.02;92.17;102954.78;5013545;28;20425;-50
2022/03/02 01:29:43;;;;;;;42.40;32.70;;;;;;;2.95;92.89;102956.97;5013526;28;20437;-45
2022/03/02 01:32:11;;;;;;;47.27;33.63;;;;;;;2.96;93.09;102958.63;5013569;28;20846;-44
2022/03/02 01:34:39;;;;;;;42.77;32.87;;;;;;;2.96;93.17;102955.16;5013324;28;20468;-45
2022/03/02 01:37:06;;;;;;;41.30;32.23;;;;;;;2.93;93.32;102952.72;5013617;28;20559;-46
2022/03/02 01:39:36;;;;;;;40.70;30.73;;;;;;;2.92;94.13;102956.31;5013662;28;20444;-46
2022/03/02 01:42:05;;;;;;;37.43;31.30;;;;;;;2.97;94.22;102956.84;5013622;28;20452;-45
2022/03/02 01:44:33;;;;;;;43.33;34.70;;;;;;;3.02;94.04;102947.72;5021432;28;20825;-48
2022/03/02 01:47:02;;;;;;;43.47;33.53;;;;;;;3.06;93.93;102943.13;5032640;28;20428;-45
2022/03/02 01:49:30;;;;;;;44.17;34.23;;;;;;;3.08;93.25;102941.22;5032646;28;20821;-44
2022/03/02 01:51:57;;;;;;;39.77;32.50;;;;;;;3.06;93.11;102940.47;5032900;28;20462;-46
2022/03/02 01:54:25;;;;;;;38.67;30.20;;;;;;;3.04;93.18;102926.56;5032031;28;20547;-46
2022/03/02 01:56:54;;;;;;;39.07;31.77;;;;;;;3.05;93.12;102926.44;5032714;28;20472;-45
2022/03/02 01:59:22;;;;;;;41.70;32.50;;;;;;;3.07;93.05;102919.31;5027130;28;20460;-43
2022/03/02 02:01:50;;;;;;;42.57;31.20;;;;;;;3.07;93.04;102907.91;5013446;28;20467;-45
2022/03/02 02:04:17;;;;;;;40.20;33.30;;;;;;;3.07;92.75;102910.56;5012354;28;20923;-48
2022/03/02 02:06:45;;;;;;;41.57;33.10;;;;;;;3.03;92.75;102904.63;5014996;28;20433;-46
2022/03/02 02:09:13;;;;;;;45.77;35.03;;;;;;;3.01;92.38;102913.56;5031933;28;20809;-43
2022/03/02 02:11:40;;;;;;;42.37;33.67;;;;;;;2.95;92.44;102913.94;5032292;28;20456;-45
2022/03/02 02:14:09;;;;;;;50.97;36.30;;;;;;;2.87;93.23;102908.31;5031159;28;21218;-46
2022/03/02 02:16:37;;;;;;;36.97;32.63;;;;;;;2.81;94.44;102921.84;5032094;28;20487;-46
2022/03/02 02:19:05;;;;;;;43.17;34.57;;;;;;;2.76;95.25;102915.06;5032140;28;20447;-44
2022/03/02 02:21:35;;;;;;;48.17;36.57;;;;;;;2.71;96.15;102914.50;5031686;28;20483;-47
2022/03/02 02:24:03;;;;;;;52.27;37.70;;;;;;;2.61;96.74;102899.34;5031104;28;21296;-46
2022/03/02 02:26:31;;;;;;;47.03;37.23;;;;;;;2.60;96.82;102893.22;5031750;28;20490;-44
2022/03/02 02:28:59;;;;;;;47.43;35.40;;;;;;;2.51;97.11;102893.78;5031608;28;20945;-46
2022/03/02 02:31:27;;;;;;;47.63;36.00;;;;;;;2.49;97.26;102900.06;5031731;28;20555;-49
2022/03/02 02:33:55;;;;;;;51.13;35.47;;;;;;;2.44;97.06;102889.84;5030831;28;20470;-46
2022/03/02 02:36:22;;;;;;;47.00;35.30;;;;;;;2.41;96.99;102892.66;5031751;28;20478;-47
2022/03/02 02:38:53;;;;;;;49.27;35.47;;;;;;;2.36;96.94;102894.69;5031782;28;20440;-45
2022/03/02 02:41:21;;;;;;;43.33;35.80;;;;;;;2.34;97.25;102886.03;5032314;28;20448;-45
2022/03/02 02:43:49;;;;;;;51.83;36.17;;;;;;;2.31;97.31;102882.75;5029382;28;20460;-47
2022/03/02 02:46:16;;;;;;;54.37;35.87;;;;;;;2.24;96.74;102872.56;5030251;28;20567;-46
2022/03/02 02:48:44;;;;;;;46.47;35.47;;;;;;;2.21;97.07;102870.13;5029920;28;20436;-48
2022/03/02 02:51:12;;;;;;;46.57;35.33;;;;;;;2.17;96.76;102873.03;5028831;28;20456;-47
2022/03/02 02:53:39;;;;;;;53.30;37.53;;;;;;;2.12;96.86;102873.28;5029081;28;20542;-44
2022/03/02 02:56:08;;;;;;;51.23;36.60;;;;;;;2.06;96.41;102871.03;5029983;28;20533;-45
2022/03/02 02:58:36;;;;;;;45.80;34.63;;;;;;;2.02;96.71;102880.06;5030029;28;20440;-45
2022/03/02 03:01:04;;;;;;;56.00;37.47;;;;;;;1.99;96.52;102882.88;5030577;28;20475;-47
2022/03/02 03:03:32;;;;;;;63.07;39.00;;;;;;;1.92;96.32;102873.63;5029266;28;20527;-43
2022/03/02 03:06:00;;;;;;;48.80;38.90;;;;;;;1.88;96.38;102866.81;5030366;28;20463;-48
2022/03/02 03:08:27;;;;;;;43.53;33.93;;;;;;;1.81;95.91;102869.91;5028330;28;20428;-46
2022/03/02 03:10:55;;;;;;;47.43;37.07;;;;;;;1.72;96.09;102871.28;5032418;28;20471;-48
2022/03/02 03:13:25;;;;;;;56.80;35.90;;;;;;;1.63;95.78;102871.81;5034081;28;20951;-45
2022/03/02 03:15:52;;;;;;;54.67;36.50;;;;;;;1.54;95.42;102872.34;5034564;28;20435;-47
2022/03/02 03:18:20;;;;;;;46.23;34.07;;;;;;;1.44;95.52;102879.88;5034614;28;20471;-47
2022/03/02 03:20:48;;;;;;;48.40;34.20;;;;;;;1.39;95.07;102876.69;5035170;28;20538;-45
2022/03/02 03:23:15;;;;;;;55.03;39.27;;;;;;;1.33;95.23;102870.91;5033590;28;20435;-49
2022/03/02 03:25:43;;;;;;;49.37;35.40;;;;;;;1.30;95.60;102857.94;5034481;28;20439;-47
2022/03/02 03:28:11;;;;;;;48.70;38.73;;;;;;;1.26;94.95;102854.63;5034340;28;20929;-48
2022/03/02 03:30:40;;;;;;;53.03;39.13;;;;;;;1.25;95.01;102846.84;5034553;28;20502;-45
2022/03/02 03:33:07;;;;;;;49.77;36.93;;;;;;;1.21;95.75;102848.78;5034098;28;20446;-49
2022/03/02 03:35:35;;;;;;;51.37;35.77;;;;;;;1.14;95.55;102834.28;5033951;28;20808;-43
2022/03/02 03:38:03;;;;;;;49.20;36.87;;;;;;;1.11;95.43;102831.81;5034417;28;20547;-48
2022/03/02 03:40:31;;;;;;;47.07;36.07;;;;;;;1.09;95.75;102834.53;5034507;28;20555;-43
2022/03/02 03:42:59;;;;;;;53.97;38.93;;;;;;;1.09;95.79;102838.94;5033592;28;20432;-45
2022/03/02 03:45:27;;;;;;;57.40;39.90;;;;;;;1.10;96.01;102836.25;5033449;28;21106;-46
2022/03/02 03:47:56;;;;;;;51.80;39.17;;;;;;;1.10;95.91;102827.53;5034063;28;20452;-47
2022/03/02 03:50:25;;;;;;;48.43;38.10;;;;;;;1.11;96.06;102832.69;5034663;28;20474;-42
2022/03/02 03:52:53;;;;;;;56.60;40.97;;;;;;;1.04;97.70;102841.84;5034048;28;21013;-42
2022/03/02 03:55:21;;;;;;;50.00;36.70;;;;;;;1.07;97.86;102838.19;5033384;28;20901;-46
2022/03/02 03:57:49;;;;;;;55.87;38.63;;;;;;;1.07;97.24;102831.16;5034117;28;20475;-45
2022/03/02 04:00:18;;;;;;;53.87;40.83;;;;;;;1.05;97.66;102840.03;5021184;28;20495;-45
2022/03/02 04:02:47;;;;;;;49.37;41.17;;;;;;;1.02;97.15;102838.44;5024185;28;20436;-44
2022/03/02 04:05:16;;;;;;;45.13;37.70;;;;;;;0.99;97.35;102832.50;5033002;28;20455;-44
2022/03/02 04:07:46;;;;;;;53.97;39.17;;;;;;;0.96;97.40;102830.03;5014156;28;20795;-46
2022/03/02 04:10:14;;;;;;;58.47;40.70;;;;;;;0.90;97.38;102828.59;5033304;28;20459;-43
2022/03/02 04:12:42;;;;;;;58.53;40.80;;;;;;;0.86;97.29;102826.22;5033709;28;20460;-45
2022/03/02 04:15:10;;;;;;;49.03;37.10;;;;;;;0.75;96.48;102826.78;5033019;28;20542;-44
2022/03/02 04:17:39;;;;;;;47.57;38.97;;;;;;;0.65;96.68;102822.13;5033277;28;20483;-44
2022/03/02 04:20:08;;;;;;;45.90;35.37;;;;;;;0.58;97.01;102824.22;5033697;28;20806;-48
2022/03/02 04:22:37;;;;;;;50.40;38.00;;;;;;;0.54;97.13;102830.56;5031934;28;21225;-47
2022/03/02 04:25:06;;;;;;;54.10;38.40;;;;;;;0.49;97.24;102829.97;5032522;28;21012;-44
2022/03/02 04:27:33;;;;;;;44.17;35.40;;;;;;;0.40;96.78;102839.19;5033485;28;20783;-47
2022/03/02 04:30:02;;;;;;;53.57;37.30;;;;;;;0.37;96.55;102843.72;5033584;28;20436;-46
2022/03/02 04:32:30;;;;;;;51.47;34.30;;;;;;;0.35;96.94;102846.44;5033205;28;21017;-45
2022/03/02 04:34:57;;;;;;;56.57;38.13;;;;;;;0.38;97.59;102845.44;5032255;28;20466;-46
2022/03/02 04:37:25;;;;;;;59.13;37.93;;;;;;;0.41;97.50;102847.91;5032885;28;20478;-43
2022/03/02 04:39:54;;;;;;;49.90;39.00;;;;;;;0.44;97.43;102829.38;5033441;28;20440;-45
2022/03/02 04:42:22;;;;;;;46.80;37.33;;;;;;;0.48;97.16;102828.25;5033228;28;20467;-48
2022/03/02 04:44:49;;;;;;;48.23;36.20;;;;;;;0.48;96.86;102826.50;5030824;28;20471;-47
2022/03/02 04:47:17;;;;;;;52.37;39.67;;;;;;;0.57;97.39;102834.84;5032825;28;20438;-47
2022/03/02 04:49:45;;;;;;;49.63;41.53;;;;;;;0.63;97.38;102822.19;5032883;28;20536;-46
2022/03/02 04:52:13;;;;;;;54.77;39.00;;;;;;;0.66;97.39;102818.59;5033333;28;20462;-47
2022/03/02 04:57:27;;;;;;;48.80;39.77;;;;;;;0.75;98.13;102818.91;5033289;28;20442;-48
2022/03/02 04:59:55;;;;;;;56.77;40.53;;;;;;;0.86;97.61;102815.72;5032427;28;20440;-44
2022/03/02 05:02:22;;;;;;;63.70;44.93;;;;;;;0.97;98.48;102814.22;5033141;28;20843;-46
2022/03/02 05:04:50;;;;;;;52.60;41.63;;;;;;;1.09;98.08;102820.56;5032853;28;20467;-47
2022/03/02 05:07:18;;;;;;;59.77;44.20;;;;;;;1.18;98.21;102827.06;5033458;28;20518;-49
2022/03/02 05:09:46;;;;;;;63.67;44.43;;;;;;;1.27;98.03;102829.19;5033362;28;20436;-50
2022/03/02 05:12:13;;;;;;;43.57;38.03;;;;;;;1.32;97.94;102830.63;5033294;28;20551;-47
2022/03/02 05:14:42;;;;;;;47.00;38.87;;;;;;;1.37;98.11;102825.13;5032613;28;20478;-48
2022/03/02 05:17:10;;;;;;;50.30;41.20;;;;;;;1.40;97.77;102819.69;5033149;28;20442;-45
2022/03/02 05:19:39;;;;;;;53.17;40.70;;;;;;;1.43;97.74;102823.00;5033021;28;21054;-46
2022/03/02 05:22:07;;;;;;;54.57;42.00;;;;;;;1.47;98.33;102839.44;5033099;28;20799;-48
2022/03/02 05:24:35;;;;;;;59.00;43.70;;;;;;;1.51;98.05;102823.41;5032407;28;21064;-48
2022/03/02 05:27:03;;;;;;;55.47;41.73;;;;;;;1.58;98.04;102826.53;5032861;28;20454;-47
2022/03/02 05:29:30;;;;;;;62.20;42.30;;;;;;;1.63;97.93;102824.47;5032602;28;20785;-47
2022/03/02 05:31:59;;;;;;;53.27;42.20;;;;;;;1.65;98.33;102819.97;5032694;28;20981;-47
2022/03/02 05:34:27;;;;;;;60.67;45.23;;;;;;;1.65;98.24;102823.44;5032117;28;20460;-47
2022/03/02 05:36:55;;;;;;;54.30;42.97;;;;;;;1.65;98.30;102827.84;5032732;28;20929;-47
2022/03/02 05:39:23;;;;;;;57.97;42.67;;;;;;;1.68;98.16;102833.78;5032623;28;20482;-46
2022/03/02 05:41:50;;;;;;;55.40;42.23;;;;;;;1.73;98.12;102830.06;5032459;28;20456;-45
2022/03/02 05:44:19;;;;;;;63.20;44.83;;;;;;;1.77;97.85;102823.66;5032026;28;20467;-45
2022/03/02 05:46:46;;;;;;;58.43;42.20;;;;;;;1.78;98.26;102831.50;5032403;28;20432;-43
2022/03/02 05:49:16;;;;;;;59.10;43.10;;;;;;;1.81;97.79;102831.31;5032511;28;20439;-43
2022/03/02 05:51:44;;;;;;;68.50;47.47;;;;;;;1.83;98.00;102828.56;5032467;28;20546;-45
2022/03/02 05:54:12;;;;;;;62.57;48.17;;;;;;;1.87;98.21;102822.22;5031960;28;20464;-44
2022/03/02 05:56:40;;;;;;;69.23;46.07;;;;;;;1.87;98.04;102823.06;5032585;28;20515;-45
2022/03/02 05:59:09;;;;;;;84.43;46.70;;;;;;;1.87;97.87;102809.91;5032495;28;20651;-45
2022/03/02 06:01:38;;;;;;;85.03;51.80;;;;;;;1.87;97.97;102815.16;5032424;28;20990;-47
2022/03/02 06:04:06;;;;;;;81.50;48.23;;;;;;;1.85;98.35;102817.03;5032175;28;20833;-46
2022/03/02 06:06:42;;;;;;;79.37;49.10;;;;;;;1.78;96.84;102813.06;5032333;28;20498;-48
2022/03/02 06:09:11;;;;;;;93.87;51.17;;;;;;;1.81;95.95;102812.03;5032633;28;20432;-47
2022/03/02 06:11:39;;;;;;;87.30;50.17;;;;;;;1.82;95.67;102809.34;5032364;28;20451;-45
2022/03/02 06:14:09;;;;;;;90.37;55.33;;;;;;;1.81;94.02;102828.69;5031706;28;20548;-47
2022/03/02 06:16:42;;;;;;;93.97;53.53;;;;;;;1.85;92.36;102831.97;5032439;28;20751;-51
2022/03/02 06:19:10;;;;;;;111.47;58.40;;;;;;;1.83;91.14;102820.69;5031794;28;20471;-48
2022/03/02 06:21:43;;;;;;;89.43;53.30;;;;;;;1.78;89.10;102830.63;5032299;28;20804;-48
2022/03/02 06:24:13;;;;;;;98.60;56.93;;;;;;;1.78;87.46;102830.63;5031841;28;20460;-44
2022/03/02 06:26:42;;;;;;;105.33;55.97;;;;;;;1.75;85.22;102834.28;5032067;28;20409;-44
2022/03/02 06:29:09;;;;;;;97.53;55.03;;;;;;;1.74;84.00;102843.13;5031883;28;20459;-48
2022/03/02 06:31:37;;;;;;;105.87;55.87;;;;;;;1.76;80.75;102848.31;5031917;28;20493;-47
2022/03/02 06:34:05;;;;;;;128.43;57.07;;;;;;;1.75;81.76;102852.72;5031768;28;20551;-49
2022/03/02 06:36:33;;;;;;;100.07;58.37;;;;;;;1.75;80.96;102855.34;5032154;28;20438;-49
2022/03/02 06:39:02;;;;;;;101.50;57.00;;;;;;;1.77;81.19;102858.72;5031809;28;20823;-46
2022/03/02 06:41:31;;;;;;;128.50;60.60;;;;;;;1.77;80.82;102853.47;5031933;28;20479;-48
2022/03/02 06:44:04;;;;;;;116.47;58.23;;;;;;;1.83;79.78;102861.00;5031593;28;20472;-45
2022/03/02 06:46:41;;;;;;;122.90;57.30;;;;;;;1.78;80.94;102863.06;5031097;28;20432;-44
2022/03/02 06:49:20;;;;;;;113.67;57.07;;;;;;;1.82;79.86;102864.59;5031904;28;20519;-46
2022/03/02 06:51:48;;;;;;;120.80;59.23;;;;;;;1.88;79.46;102864.19;5031679;28;20452;-44
2022/03/02 06:54:21;;;;;;;113.50;57.93;;;;;;;1.89;80.59;102865.91;5031379;28;20460;-46
2022/03/02 06:56:49;;;;;;;99.63;55.13;;;;;;;1.92;80.34;102864.88;5031840;28;20515;-46
2022/03/02 06:59:31;;;;;;;120.63;58.10;;;;;;;1.90;80.50;102866.75;5031451;28;20475;-49
2022/03/02 07:02:02;;;;;;;133.23;60.77;;;;;;;1.93;79.64;102871.84;5031759;28;20980;-48
2022/03/02 07:04:34;;;;;;;113.47;57.60;;;;;;;1.98;79.67;102877.66;5031289;28;20466;-44
2022/03/02 07:07:03;;;;;;;122.13;60.03;;;;;;;1.93;80.90;102871.84;5031845;28;20782;-46
2022/03/02 07:09:33;;;;;;;109.03;54.90;;;;;;;1.96;80.33;102879.56;5031453;28;20809;-47
2022/03/02 07:12:02;;;;;;;111.10;58.57;;;;;;;1.95;80.59;102872.59;5031862;28;20454;-46
2022/03/02 07:14:31;;;;;;;107.87;55.60;;;;;;;1.89;80.48;102862.41;5031319;28;20468;-45
2022/03/02 07:17:00;;;;;;;117.63;60.53;;;;;;;1.87;80.88;102853.78;5031507;28;20531;-46
2022/03/02 07:19:28;;;;;;;113.13;56.60;;;;;;;1.84;79.75;102862.69;5031234;28;20480;-47
2022/03/02 07:21:57;;;;;;;129.33;55.77;;;;;;;1.94;79.23;102860.38;5031349;28;20547;-47
2022/03/02 07:24:25;;;;;;;111.70;55.03;;;;;;;1.96;79.34;102863.78;5031103;28;20892;-45
2022/03/02 07:26:56;;;;;;;105.40;57.03;;;;;;;2.05;79.08;102861.44;5031728;28;20476;-44
2022/03/02 07:29:28;;;;;;;105.37;55.20;;;;;;;2.20;78.17;102860.56;5031510;28;20450;-48
2022/03/02 07:31:57;;;;;;;107.77;55.60;;;;;;;2.36;76.50;102863.09;5031364;28;20551;-45
2022/03/02 07:34:27;;;;;;;104.30;54.40;;;;;;;2.48;78.01;102867.63;5031085;28;20492;-44
2022/03/02 07:36:55;;;;;;;111.07;54.10;;;;;;;2.51;81.92;102875.34;5031340;28;20921;-51
2022/03/02 07:39:23;;;;;;;106.87;55.07;;;;;;;2.61;83.20;102876.47;5031260;28;20568;-48
2022/03/02 07:41:50;;;;;;;110.27;54.13;;;;;;;2.65;84.51;102869.25;5031796;28;20456;-49
2022/03/02 07:44:19;;;;;;;104.80;56.60;;;;;;;2.71;85.87;102867.09;5031039;28;20471;-47
2022/03/02 07:46:47;;;;;;;89.40;51.30;;;;;;;2.70;87.38;102873.28;5031018;28;20424;-45
2022/03/02 07:49:15;;;;;;;90.97;50.10;;;;;;;2.76;87.63;102875.53;5031188;28;20432;-49
2022/03/02 07:51:45;;;;;;;93.10;53.77;;;;;;;2.80;89.26;102884.13;5031456;28;20818;-45
2022/03/02 07:54:16;;;;;;;88.53;48.70;;;;;;;2.81;90.43;102890.25;5030908;28;20551;-47
2022/03/02 07:56:44;;;;;;;76.57;47.53;;;;;;;2.78;91.85;102889.47;5032574;28;20527;-49
2022/03/02 07:59:14;;;;;;;79.73;49.83;;;;;;;2.87;92.93;102887.22;5034370;28;20482;-46
2022/03/02 08:01:45;;;;;;;79.27;50.23;;;;;;;2.89;94.18;102887.97;5034499;28;20546;-45
2022/03/02 08:04:14;;;;;;;73.90;47.30;;;;;;;2.95;94.85;102890.22;5034418;28;20467;-45
2022/03/02 08:06:42;;;;;;;75.13;49.50;;;;;;;3.02;95.53;102878.34;5034569;28;20436;-49
2022/03/02 08:09:11;;;;;;;68.07;49.20;;;;;;;2.98;97.52;102882.13;5034386;28;20435;-45
2022/03/02 08:11:40;;;;;;;82.67;52.13;;;;;;;3.06;97.37;102877.22;5034235;28;20539;-47
2022/03/02 08:14:08;;;;;;;80.17;49.70;;;;;;;3.17;97.23;102875.59;5034099;28;20539;-45
2022/03/02 08:16:37;;;;;;;78.43;51.20;;;;;;;3.18;98.10;102872.03;5034526;28;20816;-45
2022/03/02 08:19:07;;;;;;;83.63;53.37;;;;;;;3.23;98.07;102877.00;5034157;28;20430;-47
2022/03/02 08:21:36;;;;;;;90.07;50.20;;;;;;;3.23;98.51;102866.44;5034163;28;20460;-50
2022/03/02 08:24:06;;;;;;;87.83;51.03;;;;;;;3.18;98.70;102881.72;5033922;28;20470;-49
2022/03/02 08:26:37;;;;;;;84.10;50.17;;;;;;;3.12;99.06;102874.19;5034207;28;20429;-44
2022/03/02 08:29:07;;;;;;;85.07;54.07;;;;;;;3.14;98.61;102869.66;5034294;28;20511;-52
2022/03/02 08:31:37;;;;;;;78.23;50.47;;;;;;;3.07;98.65;102878.91;5033978;28;20582;-50
2022/03/02 08:34:07;;;;;;;92.80;52.10;;;;;;;3.01;98.69;102876.66;5033729;28;20908;-45
2022/03/02 08:36:36;;;;;;;90.43;51.67;;;;;;;3.12;97.78;102877.69;5033930;28;20432;-50
2022/03/02 08:39:07;;;;;;;79.33;50.00;;;;;;;3.09;98.70;102875.25;5034137;28;20541;-49
2022/03/02 08:41:35;;;;;;;91.73;52.13;;;;;;;3.11;98.98;102867.22;5034003;28;20567;-49
2022/03/02 08:44:05;;;;;;;76.57;51.57;;;;;;;3.17;99.07;102880.00;5033365;28;21027;-48
2022/03/02 08:46:33;;;;;;;76.97;49.97;;;;;;;3.12;99.11;102876.84;5033869;28;20511;-46
2022/03/02 08:49:01;;;;;;;79.17;51.37;;;;;;;3.21;98.81;102881.53;5033870;28;20472;-46
2022/03/02 08:51:31;;;;;;;66.80;45.37;;;;;;;3.16;99.23;102889.75;5033624;28;20991;-48
2022/03/02 08:54:04;;;;;;;73.50;48.93;;;;;;;3.04;99.02;102894.94;5033214;28;20460;-45
2022/03/02 08:56:35;;;;;;;76.03;49.20;;;;;;;2.97;98.78;102893.59;5033603;28;21008;-48
2022/03/02 08:59:05;;;;;;;76.13;50.87;;;;;;;3.05;98.65;102884.28;5033568;28;20432;-46
2022/03/02 09:01:33;;;;;;;79.33;51.10;;;;;;;3.07;98.65;102889.47;5033409;28;20476;-45
2022/03/02 09:04:02;;;;;;;90.53;55.30;;;;;;;3.10;98.58;102886.63;5033078;28;20475;-46
2022/03/02 09:06:32;;;;;;;84.40;53.33;;;;;;;3.12;98.19;102896.13;5033492;28;20440;-45
2022/03/02 09:08:59;;;;;;;83.47;49.63;;;;;;;3.16;98.52;102894.16;5032690;28;20443;-47
2022/03/02 09:11:27;;;;;;;67.00;46.63;;;;;;;3.15;98.46;102893.31;5033362;28;20562;-46
2022/03/02 09:13:55;;;;;;;71.77;45.83;;;;;;;3.23;98.44;102892.81;5047092;22;20460;-50
2022/03/02 09:16:22;;;;;;;64.77;44.77;;;;;;;3.23;98.77;102891.03;5033112;28;20435;-48
2022/03/02 09:18:50;;;;;;;57.70;41.73;;;;;;;3.15;98.83;102893.31;5032881;28;20951;-49
2022/03/02 09:21:21;;;;;;;65.33;46.00;;;;;;;3.27;98.92;102886.41;5033152;28;20490;-49
2022/03/02 09:23:53;;;;;;;63.80;47.40;;;;;;;3.32;98.80;102872.00;5032645;28;20460;-48
2022/03/02 09:26:22;;;;;;;72.20;47.63;;;;;;;3.30;98.95;102879.16;5033080;28;20432;-52
2022/03/02 09:28:52;;;;;;;79.97;47.93;;;;;;;3.23;98.81;102872.56;5032791;28;20467;-49
2022/03/02 09:31:23;;;;;;;68.67;48.30;;;;;;;3.36;98.74;102877.91;5032960;28;20428;-48
2022/03/02 09:33:56;;;;;;;68.07;46.33;;;;;;;3.34;99.23;102879.81;5032435;28;20476;-48
2022/03/02 09:36:25;;;;;;;73.80;46.97;;;;;;;3.36;98.75;102875.28;5033032;28;20420;-45
2022/03/02 09:38:55;;;;;;;65.30;47.07;;;;;;;3.34;98.86;102867.44;5032689;28;20523;-47
2022/03/02 09:41:29;;;;;;;72.97;47.00;;;;;;;3.24;98.76;102870.78;5032518;28;20491;-51
2022/03/02 09:43:59;;;;;;;80.77;46.77;;;;;;;3.22;98.36;102888.50;5030842;28;20468;-47
2022/03/02 09:46:35;;;;;;;64.90;45.20;;;;;;;3.16;98.17;102884.47;5032647;28;20435;-47
2022/03/02 09:49:08;;;;;;;63.63;45.30;;;;;;;3.11;97.50;102875.13;5032522;28;20846;-47
2022/03/02 09:51:38;;;;;;;63.83;41.83;;;;;;;3.08;96.62;102886.72;5032549;28;20428;-48
2022/03/02 09:54:09;;;;;;;74.87;43.33;;;;;;;3.06;96.03;102861.41;5031966;28;20472;-48
2022/03/02 09:56:37;;;;;;;71.20;41.90;;;;;;;3.01;95.72;102876.66;5032636;28;20523;-45
2022/03/02 09:59:07;;;;;;;69.23;42.17;;;;;;;3.01;94.41;102884.56;5032351;28;20535;-52
2022/03/02 10:01:38;;;;;;;61.33;38.63;;;;;;;2.96;93.52;102882.22;5032451;28;20480;-50
2022/03/02 10:04:17;;;;;;;53.33;38.07;;;;;;;2.95;92.88;102877.91;5032016;28;20930;-50
2022/03/02 10:06:46;;;;;;;55.10;38.80;;;;;;;3.01;92.43;102872.25;5032686;28;20789;-50
2022/03/02 10:09:18;;;;;;;63.97;38.10;;;;;;;2.95;92.71;102877.91;5032041;28;21028;-48
2022/03/02 10:11:46;;;;;;;51.23;36.40;;;;;;;3.13;91.45;102868.84;5032392;28;20428;-52
2022/03/02 10:14:14;;;;;;;55.20;38.10;;;;;;;3.25;92.48;102868.06;5031497;28;20472;-45
2022/03/02 10:16:45;;;;;;;51.03;36.17;;;;;;;3.29;94.19;102860.78;5032283;28;20431;-51
2022/03/02 10:19:34;;;;;;;57.10;35.70;;;;;;;3.30;95.95;102863.34;5032278;28;20428;-46
2022/03/02 10:22:10;;;;;;;53.07;37.17;;;;;;;3.37;96.30;102860.31;5032051;28;20515;-47
2022/03/02 10:24:46;;;;;;;71.30;41.87;;;;;;;3.31;96.86;102851.84;5031595;28;20455;-47
2022/03/02 10:27:31;;;;;;;69.07;43.23;;;;;;;3.35;96.67;102847.22;5032280;28;20527;-50
2022/03/02 10:30:06;;;;;;;71.13;41.77;;;;;;;3.35;97.08;102868.31;5032315;28;20537;-53
2022/03/02 10:32:36;;;;;;;69.57;41.27;;;;;;;3.32;96.80;102865.84;5032002;28;20965;-47
2022/03/02 10:35:07;;;;;;;70.23;43.90;;;;;;;3.37;96.13;102863.81;5031405;28;21030;-45
2022/03/02 10:37:36;;;;;;;67.47;43.03;;;;;;;3.40;96.32;102853.06;5031548;28;20434;-45
2022/03/02 10:40:11;;;;;;;60.13;40.10;;;;;;;3.33;97.14;102863.16;5031958;28;20450;-45
2022/03/02 10:42:41;;;;;;;74.67;42.00;;;;;;;3.37;97.18;102863.81;5031886;28;20475;-48
2022/03/02 10:45:16;;;;;;;67.23;40.20;;;;;;;3.32;97.27;102860.59;5031439;28;20464;-51
2022/03/02 10:47:55;;;;;;;63.83;39.00;;;;;;;3.16;96.09;102866.00;5031762;28;20438;-50
2022/03/02 10:50:25;;;;;;;64.30;37.90;;;;;;;3.04;95.31;102863.28;5031899;28;20533;-47
2022/03/02 10:52:54;;;;;;;63.80;39.57;;;;;;;3.15;93.65;102868.72;5032024;28;20547;-50
2022/03/02 10:55:24;;;;;;;78.77;42.03;;;;;;;3.16;93.54;102860.75;5031317;28;20468;-46
2022/03/02 10:57:54;;;;;;;69.13;41.27;;;;;;;3.23;92.72;102855.91;5031569;28;21110;-49
2022/03/02 11:00:23;;;;;;;61.93;39.60;;;;;;;3.31;92.41;102853.63;5032239;28;20524;-44
2022/03/02 11:02:57;;;;;;;79.83;43.07;;;;;;;3.35;93.46;102844.56;5031754;28;20567;-50
2022/03/02 11:05:28;;;;;;;67.30;41.70;;;;;;;3.39;93.98;102847.84;5031128;28;20472;-46
2022/03/02 11:07:56;;;;;;;69.93;43.90;;;;;;;3.45;94.21;102843.03;5031315;28;20523;-47
2022/03/02 11:10:32;;;;;;;59.60;40.50;;;;;;;3.58;93.71;102846.59;5031566;28;20937;-50
2022/03/02 11:13:02;;;;;;;63.67;39.20;;;;;;;3.69;93.88;102843.22;5031323;28;20494;-45
2022/03/02 11:15:46;;;;;;;65.90;40.57;;;;;;;3.77;95.01;102839.13;5031160;28;20543;-50
2022/03/02 11:18:16;;;;;;;72.20;41.33;;;;;;;3.77;96.25;102833.00;5031282;28;20424;-48
2022/03/02 11:20:53;;;;;;;70.50;42.50;;;;;;;3.84;96.45;102831.66;5031676;28;20824;-50
2022/03/02 11:23:24;;;;;;;64.30;38.93;;;;;;;3.80;97.92;102824.88;5030952;28;20452;-50
2022/03/02 11:25:56;;;;;;;58.70;39.83;;;;;;;3.88;97.26;102826.06;5031375;28;20471;-52
2022/03/02 11:28:25;;;;;;;56.47;40.70;;;;;;;3.97;97.49;102826.41;5031256;28;20430;-49